sensor_id;sensor_type;location;lat;lon;timestamp;pressure;altitude;pressure_sealevel;temperature;humidity
62928;BME280;51070;52.236;-0.892;2023-11-19T00:01:48;99655.00;;;11.06;100.00
62928;BME280;51070;52.236;-0.892;2023-11-19T00:04:14;99648.76;;;11.04;100.00
62928;BME280;51070;52.236;-0.892;2023-11-19T00:06:39;99644.58;;;11.03;100.00
62928;BME280;51070;52.236;-0.892;2023-11-19T00:09:04;99640.77;;;11.02;100.00
62928;BME280;51070;52.236;-0.892;2023-11-19T00:11:30;99639.55;;;11.02;100.00
62928;BME280;51070;52.236;-0.892;2023-11-19T00:13:55;99633.48;;;10.99;100.00
62928;BME280;51070;52.236;-0.892;2023-11-19T00:16:20;99629.65;;;10.98;100.00
62928;BME280;51070;52.236;-0.892;2023-11-19T00:18:45;99618.22;;;10.97;100.00
62928;BME280;51070;52.236;-0.892;2023-11-19T00:21:11;99615.27;;;10.96;100.00
62928;BME280;51070;52.236;-0.892;2023-11-19T00:23:36;99618.73;;;10.96;100.00
62928;BME280;51070;52.236;-0.892;2023-11-19T00:26:01;99612.33;;;10.96;100.00
62928;BME280;51070;52.236;-0.892;2023-11-19T00:28:27;99618.22;;;10.96;100.00
62928;BME280;51070;52.236;-0.892;2023-11-19T00:30:52;99619.77;;;10.94;100.00
62928;BME280;51070;52.236;-0.892;2023-11-19T00:33:18;99619.41;;;10.94;100.00
62928;BME280;51070;52.236;-0.892;2023-11-19T00:35:43;99621.12;;;10.92;100.00
62928;BME280;51070;52.236;-0.892;2023-11-19T00:38:08;99622.47;;;10.91;100.00
62928;BME280;51070;52.236;-0.892;2023-11-19T00:40:34;99624.88;;;10.90;100.00
62928;BME280;51070;52.236;-0.892;2023-11-19T00:42:59;99626.45;;;10.90;100.00
62928;BME280;51070;52.236;-0.892;2023-11-19T00:45:24;99630.24;;;10.89;100.00
62928;BME280;51070;52.236;-0.892;2023-11-19T00:47:50;99636.63;;;10.89;100.00
62928;BME280;51070;52.236;-0.892;2023-11-19T00:50:16;99633.84;;;10.88;100.00
62928;BME280;51070;52.236;-0.892;2023-11-19T00:52:41;99631.43;;;10.88;100.00
62928;BME280;51070;52.236;-0.892;2023-11-19T00:55:06;99630.92;;;10.88;100.00
62928;BME280;51070;52.236;-0.892;2023-11-19T00:57:32;99630.56;;;10.88;100.00
62928;BME280;51070;52.236;-0.892;2023-11-19T00:59:57;99626.57;;;10.87;100.00
62928;BME280;51070;52.236;-0.892;2023-11-19T01:02:24;99620.15;;;10.86;100.00
62928;BME280;51070;52.236;-0.892;2023-11-19T01:04:49;99620.67;;;10.85;100.00
62928;BME280;51070;52.236;-0.892;2023-11-19T01:07:15;99626.37;;;10.85;100.00
62928;BME280;51070;52.236;-0.892;2023-11-19T01:09:44;99624.47;;;10.86;100.00
62928;BME280;51070;52.236;-0.892;2023-11-19T01:12:09;99622.92;;;10.86;100.00
62928;BME280;51070;52.236;-0.892;2023-11-19T01:14:35;99623.27;;;10.86;100.00
62928;BME280;51070;52.236;-0.892;2023-11-19T01:17:01;99624.67;;;10.87;100.00
62928;BME280;51070;52.236;-0.892;2023-11-19T01:19:26;99624.83;;;10.87;100.00
62928;BME280;51070;52.236;-0.892;2023-11-19T01:21:53;99628.29;;;10.86;100.00
62928;BME280;51070;52.236;-0.892;2023-11-19T01:24:18;99627.41;;;10.86;100.00
62928;BME280;51070;52.236;-0.892;2023-11-19T01:26:44;99628.63;;;10.86;100.00
62928;BME280;51070;52.236;-0.892;2023-11-19T01:29:12;99626.91;;;10.86;100.00
62928;BME280;51070;52.236;-0.892;2023-11-19T01:31:41;99618.24;;;10.85;100.00
62928;BME280;51070;52.236;-0.892;2023-11-19T01:34:07;99611.34;;;10.84;100.00
62928;BME280;51070;52.236;-0.892;2023-11-19T01:36:32;99614.60;;;10.83;100.00
62928;BME280;51070;52.236;-0.892;2023-11-19T01:38:57;99612.17;;;10.83;100.00
62928;BME280;51070;52.236;-0.892;2023-11-19T01:41:23;99617.54;;;10.83;100.00
62928;BME280;51070;52.236;-0.892;2023-11-19T01:43:50;99619.08;;;10.82;100.00
62928;BME280;51070;52.236;-0.892;2023-11-19T01:46:15;99622.20;;;10.83;100.00
62928;BME280;51070;52.236;-0.892;2023-11-19T01:48:41;99627.57;;;10.84;100.00
62928;BME280;51070;52.236;-0.892;2023-11-19T01:51:08;99628.26;;;10.84;100.00
62928;BME280;51070;52.236;-0.892;2023-11-19T01:53:34;99629.98;;;10.83;100.00
62928;BME280;51070;52.236;-0.892;2023-11-19T01:56:00;99631.49;;;10.81;100.00
62928;BME280;51070;52.236;-0.892;2023-11-19T01:58:26;99634.41;;;10.80;100.00
62928;BME280;51070;52.236;-0.892;2023-11-19T02:00:51;99637.20;;;10.81;100.00
62928;BME280;51070;52.236;-0.892;2023-11-19T02:03:17;99637.73;;;10.82;100.00
62928;BME280;51070;52.236;-0.892;2023-11-19T02:05:44;99633.95;;;10.83;100.00
62928;BME280;51070;52.236;-0.892;2023-11-19T02:08:10;99636.05;;;10.84;100.00
62928;BME280;51070;52.236;-0.892;2023-11-19T02:10:35;99642.95;;;10.83;100.00
62928;BME280;51070;52.236;-0.892;2023-11-19T02:13:01;99644.86;;;10.83;100.00
62928;BME280;51070;52.236;-0.892;2023-11-19T02:15:26;99641.24;;;10.85;100.00
62928;BME280;51070;52.236;-0.892;2023-11-19T02:17:51;99642.30;;;10.87;100.00
62928;BME280;51070;52.236;-0.892;2023-11-19T02:20:17;99642.50;;;10.89;100.00
62928;BME280;51070;52.236;-0.892;2023-11-19T02:22:45;99634.40;;;10.91;100.00
62928;BME280;51070;52.236;-0.892;2023-11-19T02:25:20;99629.76;;;10.92;100.00
62928;BME280;51070;52.236;-0.892;2023-11-19T02:27:58;99621.96;;;10.91;100.00
62928;BME280;51070;52.236;-0.892;2023-11-19T02:30:24;99612.27;;;10.91;100.00
62928;BME280;51070;52.236;-0.892;2023-11-19T02:32:57;99612.80;;;10.92;100.00
62928;BME280;51070;52.236;-0.892;2023-11-19T02:35:26;99611.26;;;10.92;100.00
62928;BME280;51070;52.236;-0.892;2023-11-19T02:37:52;99608.84;;;10.92;100.00
62928;BME280;51070;52.236;-0.892;2023-11-19T02:40:17;99607.10;;;10.92;100.00
62928;BME280;51070;52.236;-0.892;2023-11-19T02:42:43;99607.45;;;10.92;100.00
62928;BME280;51070;52.236;-0.892;2023-11-19T02:45:09;99614.20;;;10.92;100.00
62928;BME280;51070;52.236;-0.892;2023-11-19T02:47:39;99612.31;;;10.93;100.00
62928;BME280;51070;52.236;-0.892;2023-11-19T02:50:05;99603.48;;;10.92;100.00
62928;BME280;51070;52.236;-0.892;2023-11-19T02:52:38;99600.01;;;10.92;100.00
62928;BME280;51070;52.236;-0.892;2023-11-19T02:55:04;99596.88;;;10.89;100.00
62928;BME280;51070;52.236;-0.892;2023-11-19T02:57:34;99592.02;;;10.87;100.00
62928;BME280;51070;52.236;-0.892;2023-11-19T02:59:59;99594.40;;;10.85;100.00
62928;BME280;51070;52.236;-0.892;2023-11-19T03:02:24;99596.79;;;10.82;100.00
62928;BME280;51070;52.236;-0.892;2023-11-19T03:04:58;99597.27;;;10.80;100.00
62928;BME280;51070;52.236;-0.892;2023-11-19T03:07:24;99602.28;;;10.79;100.00
62928;BME280;51070;52.236;-0.892;2023-11-19T03:09:49;99606.24;;;10.78;100.00
62928;BME280;51070;52.236;-0.892;2023-11-19T03:12:14;99607.80;;;10.80;100.00
62928;BME280;51070;52.236;-0.892;2023-11-19T03:14:40;99601.62;;;10.82;100.00
62928;BME280;51070;52.236;-0.892;2023-11-19T03:17:05;99596.98;;;10.85;100.00
62928;BME280;51070;52.236;-0.892;2023-11-19T03:19:31;99599.10;;;10.87;100.00
62928;BME280;51070;52.236;-0.892;2023-11-19T03:21:56;99594.45;;;10.89;100.00
62928;BME280;51070;52.236;-0.892;2023-11-19T03:24:22;99593.95;;;10.91;100.00
62928;BME280;51070;52.236;-0.892;2023-11-19T03:26:50;99590.70;;;10.93;100.00
62928;BME280;51070;52.236;-0.892;2023-11-19T03:29:15;99590.91;;;10.96;100.00
62928;BME280;51070;52.236;-0.892;2023-11-19T03:31:43;99578.48;;;10.98;100.00
62928;BME280;51070;52.236;-0.892;2023-11-19T03:34:10;99575.77;;;11.00;100.00
62928;BME280;51070;52.236;-0.892;2023-11-19T03:36:35;99574.05;;;11.01;100.00
62928;BME280;51070;52.236;-0.892;2023-11-19T03:39:00;99573.34;;;11.02;100.00
62928;BME280;51070;52.236;-0.892;2023-11-19T03:41:26;99569.91;;;11.04;100.00
62928;BME280;51070;52.236;-0.892;2023-11-19T03:43:51;99570.81;;;11.06;100.00
62928;BME280;51070;52.236;-0.892;2023-11-19T03:46:17;99560.63;;;11.06;100.00
62928;BME280;51070;52.236;-0.892;2023-11-19T03:48:42;99567.52;;;11.06;100.00
62928;BME280;51070;52.236;-0.892;2023-11-19T03:51:08;99563.37;;;11.07;100.00
62928;BME280;51070;52.236;-0.892;2023-11-19T03:53:34;99558.89;;;11.08;100.00
62928;BME280;51070;52.236;-0.892;2023-11-19T03:55:59;99556.83;;;11.08;100.00
62928;BME280;51070;52.236;-0.892;2023-11-19T03:58:24;99555.29;;;11.10;100.00
62928;BME280;51070;52.236;-0.892;2023-11-19T04:00:49;99555.48;;;11.12;100.00
62928;BME280;51070;52.236;-0.892;2023-11-19T04:03:14;99555.48;;;11.13;100.00
62928;BME280;51070;52.236;-0.892;2023-11-19T04:05:40;99554.29;;;11.13;100.00
62928;BME280;51070;52.236;-0.892;2023-11-19T04:08:05;99557.92;;;11.13;100.00
62928;BME280;51070;52.236;-0.892;2023-11-19T04:10:30;99556.56;;;11.15;100.00
62928;BME280;51070;52.236;-0.892;2023-11-19T04:12:55;99551.89;;;11.15;100.00
62928;BME280;51070;52.236;-0.892;2023-11-19T04:15:21;99558.10;;;11.14;100.00
62928;BME280;51070;52.236;-0.892;2023-11-19T04:17:46;99560.52;;;11.12;100.00
62928;BME280;51070;52.236;-0.892;2023-11-19T04:20:11;99560.11;;;11.08;100.00
62928;BME280;51070;52.236;-0.892;2023-11-19T04:22:38;99554.55;;;11.05;100.00
62928;BME280;51070;52.236;-0.892;2023-11-19T04:25:04;99556.74;;;11.01;100.00
62928;BME280;51070;52.236;-0.892;2023-11-19T04:27:30;99561.85;;;10.95;100.00
62928;BME280;51070;52.236;-0.892;2023-11-19T04:29:55;99561.81;;;10.91;100.00
62928;BME280;51070;52.236;-0.892;2023-11-19T04:32:21;99563.81;;;10.86;100.00
62928;BME280;51070;52.236;-0.892;2023-11-19T04:34:46;99565.31;;;10.81;100.00
62928;BME280;51070;52.236;-0.892;2023-11-19T04:37:11;99568.90;;;10.77;100.00
62928;BME280;51070;52.236;-0.892;2023-11-19T04:39:36;99569.88;;;10.74;100.00
62928;BME280;51070;52.236;-0.892;2023-11-19T04:42:02;99571.04;;;10.69;100.00
62928;BME280;51070;52.236;-0.892;2023-11-19T04:44:27;99566.82;;;10.65;100.00
62928;BME280;51070;52.236;-0.892;2023-11-19T04:46:54;99561.77;;;10.62;100.00
62928;BME280;51070;52.236;-0.892;2023-11-19T04:49:19;99563.63;;;10.57;100.00
62928;BME280;51070;52.236;-0.892;2023-11-19T04:51:45;99572.90;;;10.54;100.00
62928;BME280;51070;52.236;-0.892;2023-11-19T04:54:14;99574.42;;;10.52;100.00
62928;BME280;51070;52.236;-0.892;2023-11-19T04:56:40;99573.36;;;10.50;100.00
62928;BME280;51070;52.236;-0.892;2023-11-19T04:59:05;99576.95;;;10.48;100.00
62928;BME280;51070;52.236;-0.892;2023-11-19T05:01:31;99583.51;;;10.48;100.00
62928;BME280;51070;52.236;-0.892;2023-11-19T05:03:57;99585.77;;;10.48;100.00
62928;BME280;51070;52.236;-0.892;2023-11-19T05:06:25;99588.39;;;10.50;100.00
62928;BME280;51070;52.236;-0.892;2023-11-19T05:08:51;99579.95;;;10.51;100.00
62928;BME280;51070;52.236;-0.892;2023-11-19T05:11:16;99576.99;;;10.50;100.00
62928;BME280;51070;52.236;-0.892;2023-11-19T05:13:44;99580.91;;;10.47;100.00
62928;BME280;51070;52.236;-0.892;2023-11-19T05:16:11;99573.14;;;10.46;100.00
62928;BME280;51070;52.236;-0.892;2023-11-19T05:18:39;99574.30;;;10.44;100.00
62928;BME280;51070;52.236;-0.892;2023-11-19T05:21:04;99575.14;;;10.42;100.00
62928;BME280;51070;52.236;-0.892;2023-11-19T05:23:30;99574.80;;;10.41;100.00
62928;BME280;51070;52.236;-0.892;2023-11-19T05:25:55;99577.73;;;10.41;100.00
62928;BME280;51070;52.236;-0.892;2023-11-19T05:28:20;99576.52;;;10.40;100.00
62928;BME280;51070;52.236;-0.892;2023-11-19T05:30:46;99576.84;;;10.39;100.00
62928;BME280;51070;52.236;-0.892;2023-11-19T05:33:11;99577.88;;;10.40;100.00
62928;BME280;51070;52.236;-0.892;2023-11-19T05:35:36;99574.27;;;10.41;100.00
62928;BME280;51070;52.236;-0.892;2023-11-19T05:38:01;99576.55;;;10.44;100.00
62928;BME280;51070;52.236;-0.892;2023-11-19T05:40:27;99570.73;;;10.48;100.00
62928;BME280;51070;52.236;-0.892;2023-11-19T05:42:53;99565.43;;;10.51;100.00
62928;BME280;51070;52.236;-0.892;2023-11-19T05:45:18;99565.62;;;10.53;100.00
62928;BME280;51070;52.236;-0.892;2023-11-19T05:47:43;99561.30;;;10.53;100.00
62928;BME280;51070;52.236;-0.892;2023-11-19T05:50:09;99556.13;;;10.54;100.00
62928;BME280;51070;52.236;-0.892;2023-11-19T05:52:35;99559.75;;;10.54;100.00
62928;BME280;51070;52.236;-0.892;2023-11-19T05:55:01;99554.23;;;10.53;100.00
62928;BME280;51070;52.236;-0.892;2023-11-19T05:57:29;99556.65;;;10.54;100.00
62928;BME280;51070;52.236;-0.892;2023-11-19T05:59:55;99562.85;;;10.53;100.00
62928;BME280;51070;52.236;-0.892;2023-11-19T06:02:20;99560.98;;;10.54;100.00
62928;BME280;51070;52.236;-0.892;2023-11-19T06:04:45;99558.91;;;10.55;100.00
62928;BME280;51070;52.236;-0.892;2023-11-19T06:07:13;99564.79;;;10.55;100.00
62928;BME280;51070;52.236;-0.892;2023-11-19T06:09:38;99564.98;;;10.56;100.00
62928;BME280;51070;52.236;-0.892;2023-11-19T06:12:03;99556.34;;;10.56;100.00
62928;BME280;51070;52.236;-0.892;2023-11-19T06:14:31;99555.45;;;10.54;100.00
62928;BME280;51070;52.236;-0.892;2023-11-19T06:16:56;99553.52;;;10.53;100.00
62928;BME280;51070;52.236;-0.892;2023-11-19T06:19:22;99556.81;;;10.52;100.00
62928;BME280;51070;52.236;-0.892;2023-11-19T06:21:49;99552.96;;;10.49;100.00
62928;BME280;51070;52.236;-0.892;2023-11-19T06:24:15;99555.70;;;10.47;100.00
62928;BME280;51070;52.236;-0.892;2023-11-19T06:26:40;99557.41;;;10.45;100.00
62928;BME280;51070;52.236;-0.892;2023-11-19T06:29:05;99559.61;;;10.43;100.00
62928;BME280;51070;52.236;-0.892;2023-11-19T06:31:30;99562.86;;;10.40;100.00
62928;BME280;51070;52.236;-0.892;2023-11-19T06:33:56;99565.77;;;10.39;100.00
62928;BME280;51070;52.236;-0.892;2023-11-19T06:36:21;99565.42;;;10.39;100.00
62928;BME280;51070;52.236;-0.892;2023-11-19T06:38:46;99566.96;;;10.38;100.00
62928;BME280;51070;52.236;-0.892;2023-11-19T06:41:12;99565.56;;;10.37;100.00
62928;BME280;51070;52.236;-0.892;2023-11-19T06:43:37;99559.35;;;10.37;100.00
62928;BME280;51070;52.236;-0.892;2023-11-19T06:46:02;99559.40;;;10.40;100.00
62928;BME280;51070;52.236;-0.892;2023-11-19T06:48:31;99561.87;;;10.44;100.00
62928;BME280;51070;52.236;-0.892;2023-11-19T06:50:57;99562.27;;;10.48;100.00
62928;BME280;51070;52.236;-0.892;2023-11-19T06:53:22;99568.04;;;10.51;100.00
62928;BME280;51070;52.236;-0.892;2023-11-19T06:55:47;99571.18;;;10.55;100.00
62928;BME280;51070;52.236;-0.892;2023-11-19T06:58:13;99569.86;;;10.60;100.00
62928;BME280;51070;52.236;-0.892;2023-11-19T07:00:38;99568.52;;;10.63;100.00
62928;BME280;51070;52.236;-0.892;2023-11-19T07:03:03;99566.84;;;10.66;100.00
62928;BME280;51070;52.236;-0.892;2023-11-19T07:05:29;99568.78;;;10.69;100.00
62928;BME280;51070;52.236;-0.892;2023-11-19T07:07:55;99573.48;;;10.72;100.00
62928;BME280;51070;52.236;-0.892;2023-11-19T07:10:20;99576.10;;;10.73;100.00
62928;BME280;51070;52.236;-0.892;2023-11-19T07:12:46;99571.96;;;10.73;100.00
62928;BME280;51070;52.236;-0.892;2023-11-19T07:15:12;99574.73;;;10.74;100.00
62928;BME280;51070;52.236;-0.892;2023-11-19T07:17:38;99575.94;;;10.74;100.00
62928;BME280;51070;52.236;-0.892;2023-11-19T07:20:05;99583.53;;;10.75;100.00
62928;BME280;51070;52.236;-0.892;2023-11-19T07:22:31;99586.82;;;10.74;100.00
62928;BME280;51070;52.236;-0.892;2023-11-19T07:24:56;99590.45;;;10.74;100.00
62928;BME280;51070;52.236;-0.892;2023-11-19T07:27:21;99584.23;;;10.73;100.00
62928;BME280;51070;52.236;-0.892;2023-11-19T07:29:47;99582.11;;;10.71;100.00
62928;BME280;51070;52.236;-0.892;2023-11-19T07:32:13;99582.60;;;10.69;100.00
62928;BME280;51070;52.236;-0.892;2023-11-19T07:34:41;99584.84;;;10.68;100.00
62928;BME280;51070;52.236;-0.892;2023-11-19T07:37:07;99585.34;;;10.66;100.00
62928;BME280;51070;52.236;-0.892;2023-11-19T07:39:32;99579.11;;;10.66;100.00
62928;BME280;51070;52.236;-0.892;2023-11-19T07:41:57;99576.00;;;10.66;100.00
62928;BME280;51070;52.236;-0.892;2023-11-19T07:44:23;99570.80;;;10.65;100.00
62928;BME280;51070;52.236;-0.892;2023-11-19T07:46:48;99570.45;;;10.65;100.00
62928;BME280;51070;52.236;-0.892;2023-11-19T07:49:13;99566.81;;;10.64;100.00
62928;BME280;51070;52.236;-0.892;2023-11-19T07:51:39;99570.23;;;10.62;100.00
62928;BME280;51070;52.236;-0.892;2023-11-19T07:54:05;99570.55;;;10.60;100.00
62928;BME280;51070;52.236;-0.892;2023-11-19T07:56:30;99573.99;;;10.59;100.00
62928;BME280;51070;52.236;-0.892;2023-11-19T07:58:56;99574.16;;;10.59;100.00
62928;BME280;51070;52.236;-0.892;2023-11-19T08:01:21;99575.71;;;10.59;100.00
62928;BME280;51070;52.236;-0.892;2023-11-19T08:03:48;99581.59;;;10.58;100.00
62928;BME280;51070;52.236;-0.892;2023-11-19T08:06:14;99575.03;;;10.59;100.00
62928;BME280;51070;52.236;-0.892;2023-11-19T08:08:39;99570.92;;;10.61;100.00
62928;BME280;51070;52.236;-0.892;2023-11-19T08:11:05;99572.48;;;10.61;100.00
62928;BME280;51070;52.236;-0.892;2023-11-19T08:13:30;99574.59;;;10.64;100.00
62928;BME280;51070;52.236;-0.892;2023-11-19T08:15:56;99578.05;;;10.65;100.00
62928;BME280;51070;52.236;-0.892;2023-11-19T08:18:23;99582.27;;;10.69;100.00
62928;BME280;51070;52.236;-0.892;2023-11-19T08:20:48;99581.64;;;10.75;100.00
62928;BME280;51070;52.236;-0.892;2023-11-19T08:23:17;99581.59;;;10.83;100.00
62928;BME280;51070;52.236;-0.892;2023-11-19T08:25:43;99583.23;;;10.89;100.00
62928;BME280;51070;52.236;-0.892;2023-11-19T08:28:09;99581.05;;;10.96;100.00
62928;BME280;51070;52.236;-0.892;2023-11-19T08:30:34;99586.41;;;10.96;100.00
62928;BME280;51070;52.236;-0.892;2023-11-19T08:33:00;99580.53;;;10.96;100.00
62928;BME280;51070;52.236;-0.892;2023-11-19T08:35:27;99578.80;;;10.96;100.00
62928;BME280;51070;52.236;-0.892;2023-11-19T08:37:53;99574.14;;;10.96;100.00
62928;BME280;51070;52.236;-0.892;2023-11-19T08:40:19;99574.36;;;11.00;100.00
62928;BME280;51070;52.236;-0.892;2023-11-19T08:42:45;99563.23;;;11.09;100.00
62928;BME280;51070;52.236;-0.892;2023-11-19T08:45:10;99574.89;;;11.16;100.00
62928;BME280;51070;52.236;-0.892;2023-11-19T08:47:36;99578.80;;;11.24;100.00
62928;BME280;51070;52.236;-0.892;2023-11-19T08:50:01;99583.71;;;11.30;100.00
62928;BME280;51070;52.236;-0.892;2023-11-19T08:52:29;99583.07;;;11.35;100.00
62928;BME280;51070;52.236;-0.892;2023-11-19T08:54:54;99585.36;;;11.40;100.00
62928;BME280;51070;52.236;-0.892;2023-11-19T08:57:19;99581.28;;;11.45;100.00
62928;BME280;51070;52.236;-0.892;2023-11-19T08:59:45;99578.40;;;11.51;100.00
62928;BME280;51070;52.236;-0.892;2023-11-19T09:02:11;99581.57;;;11.56;100.00
62928;BME280;51070;52.236;-0.892;2023-11-19T09:04:36;99584.04;;;11.62;100.00
62928;BME280;51070;52.236;-0.892;2023-11-19T09:07:02;99579.95;;;11.69;100.00
62928;BME280;51070;52.236;-0.892;2023-11-19T09:09:28;99575.35;;;11.73;99.77
62928;BME280;51070;52.236;-0.892;2023-11-19T09:11:54;99568.11;;;11.77;99.70
62928;BME280;51070;52.236;-0.892;2023-11-19T09:14:19;99568.30;;;11.79;99.43
62928;BME280;51070;52.236;-0.892;2023-11-19T09:16:49;99568.90;;;11.86;98.84
62928;BME280;51070;52.236;-0.892;2023-11-19T09:19:14;99561.67;;;11.91;98.43
62928;BME280;51070;52.236;-0.892;2023-11-19T09:21:40;99557.36;;;11.93;99.21
62928;BME280;51070;52.236;-0.892;2023-11-19T09:24:05;99566.56;;;11.96;98.68
62928;BME280;51070;52.236;-0.892;2023-11-19T09:26:32;99557.70;;;11.93;98.90
62928;BME280;51070;52.236;-0.892;2023-11-19T09:28:57;99556.66;;;11.92;99.48
62928;BME280;51070;52.236;-0.892;2023-11-19T09:31:22;99556.86;;;11.95;99.78
62928;BME280;51070;52.236;-0.892;2023-11-19T09:33:48;99563.17;;;12.06;99.70
62928;BME280;51070;52.236;-0.892;2023-11-19T09:36:13;99560.13;;;12.15;99.56
62928;BME280;51070;52.236;-0.892;2023-11-19T09:38:42;99560.56;;;12.28;99.04
62928;BME280;51070;52.236;-0.892;2023-11-19T09:41:07;99558.77;;;12.45;97.95
62928;BME280;51070;52.236;-0.892;2023-11-19T09:43:34;99564.52;;;12.49;97.24
62928;BME280;51070;52.236;-0.892;2023-11-19T09:46:01;99560.41;;;12.56;97.06
62928;BME280;51070;52.236;-0.892;2023-11-19T09:48:32;99563.70;;;12.59;96.77
62928;BME280;51070;52.236;-0.892;2023-11-19T09:50:57;99565.12;;;12.65;96.84
62928;BME280;51070;52.236;-0.892;2023-11-19T09:53:24;99565.65;;;12.67;96.66
62928;BME280;51070;52.236;-0.892;2023-11-19T09:55:49;99558.86;;;12.60;96.98
62928;BME280;51070;52.236;-0.892;2023-11-19T09:58:15;99559.34;;;12.53;96.54
62928;BME280;51070;52.236;-0.892;2023-11-19T10:00:41;99558.45;;;12.51;97.29
62928;BME280;51070;52.236;-0.892;2023-11-19T10:03:07;99562.91;;;12.42;97.84
62928;BME280;51070;52.236;-0.892;2023-11-19T10:05:32;99562.34;;;12.33;99.22
62928;BME280;51070;52.236;-0.892;2023-11-19T10:07:57;99556.91;;;12.27;99.93
62928;BME280;51070;52.236;-0.892;2023-11-19T10:10:23;99555.67;;;12.20;100.00
62928;BME280;51070;52.236;-0.892;2023-11-19T10:12:50;99552.69;;;12.15;100.00
62928;BME280;51070;52.236;-0.892;2023-11-19T10:15:25;99558.17;;;12.10;100.00
62928;BME280;51070;52.236;-0.892;2023-11-19T10:17:51;99566.87;;;12.12;100.00
62928;BME280;51070;52.236;-0.892;2023-11-19T10:20:17;99563.45;;;12.19;100.00
62928;BME280;51070;52.236;-0.892;2023-11-19T10:22:42;99564.38;;;12.27;100.00
62928;BME280;51070;52.236;-0.892;2023-11-19T10:25:21;99572.33;;;12.52;100.00
62928;BME280;51070;52.236;-0.892;2023-11-19T10:27:47;99573.38;;;12.86;100.00
62928;BME280;51070;52.236;-0.892;2023-11-19T10:30:13;99568.73;;;12.92;99.37
62928;BME280;51070;52.236;-0.892;2023-11-19T10:32:42;99571.30;;;12.86;99.61
62928;BME280;51070;52.236;-0.892;2023-11-19T10:35:07;99567.48;;;12.84;99.92
62928;BME280;51070;52.236;-0.892;2023-11-19T10:37:33;99566.93;;;12.79;99.94
62928;BME280;51070;52.236;-0.892;2023-11-19T10:40:00;99571.38;;;12.69;99.72
62928;BME280;51070;52.236;-0.892;2023-11-19T10:42:25;99573.55;;;12.56;99.99
62928;BME280;51070;52.236;-0.892;2023-11-19T10:44:51;99569.36;;;12.47;100.00
62928;BME280;51070;52.236;-0.892;2023-11-19T10:47:18;99568.61;;;12.39;100.00
62928;BME280;51070;52.236;-0.892;2023-11-19T10:49:44;99564.80;;;12.40;100.00
62928;BME280;51070;52.236;-0.892;2023-11-19T10:52:11;99556.14;;;12.41;100.00
62928;BME280;51070;52.236;-0.892;2023-11-19T10:54:36;99549.88;;;12.38;100.00
62928;BME280;51070;52.236;-0.892;2023-11-19T10:57:03;99553.67;;;12.34;100.00
62928;BME280;51070;52.236;-0.892;2023-11-19T10:59:31;99557.26;;;12.26;100.00
62928;BME280;51070;52.236;-0.892;2023-11-19T11:01:57;99552.71;;;12.20;100.00
62928;BME280;51070;52.236;-0.892;2023-11-19T11:04:23;99552.77;;;12.28;100.00
62928;BME280;51070;52.236;-0.892;2023-11-19T11:06:51;99555.14;;;12.46;100.00
62928;BME280;51070;52.236;-0.892;2023-11-19T11:09:16;99554.55;;;12.65;100.00
62928;BME280;51070;52.236;-0.892;2023-11-19T11:11:43;99548.98;;;12.62;100.00
62928;BME280;51070;52.236;-0.892;2023-11-19T11:14:12;99548.95;;;12.53;100.00
62928;BME280;51070;52.236;-0.892;2023-11-19T11:16:40;99541.81;;;12.50;100.00
62928;BME280;51070;52.236;-0.892;2023-11-19T11:19:07;99545.14;;;12.58;100.00
62928;BME280;51070;52.236;-0.892;2023-11-19T11:21:34;99544.14;;;12.62;100.00
62928;BME280;51070;52.236;-0.892;2023-11-19T11:24:07;99543.06;;;12.57;100.00
62928;BME280;51070;52.236;-0.892;2023-11-19T11:34:16;99531.52;;;12.36;100.00
62928;BME280;51070;52.236;-0.892;2023-11-19T11:39:28;99522.59;;;12.22;100.00
62928;BME280;51070;52.236;-0.892;2023-11-19T11:47:22;99509.06;;;12.18;100.00
62928;BME280;51070;52.236;-0.892;2023-11-19T11:49:48;99515.85;;;12.25;100.00
62928;BME280;51070;52.236;-0.892;2023-11-19T11:52:16;99505.30;;;12.25;100.00
62928;BME280;51070;52.236;-0.892;2023-11-19T11:54:42;99502.69;;;12.25;100.00
62928;BME280;51070;52.236;-0.892;2023-11-19T11:57:08;99505.51;;;12.34;100.00
62928;BME280;51070;52.236;-0.892;2023-11-19T11:59:37;99502.25;;;12.39;100.00
62928;BME280;51070;52.236;-0.892;2023-11-19T12:02:03;99502.09;;;12.41;100.00
62928;BME280;51070;52.236;-0.892;2023-11-19T12:04:28;99500.16;;;12.38;100.00
62928;BME280;51070;52.236;-0.892;2023-11-19T12:07:06;99495.47;;;12.35;100.00
62928;BME280;51070;52.236;-0.892;2023-11-19T12:09:33;99492.14;;;12.28;100.00
62928;BME280;51070;52.236;-0.892;2023-11-19T12:19:57;99490.88;;;12.20;100.00
62928;BME280;51070;52.236;-0.892;2023-11-19T12:22:24;99489.48;;;12.17;100.00
62928;BME280;51070;52.236;-0.892;2023-11-19T12:24:49;99486.90;;;12.18;100.00
62928;BME280;51070;52.236;-0.892;2023-11-19T12:27:16;99491.91;;;12.21;100.00
62928;BME280;51070;52.236;-0.892;2023-11-19T12:29:42;99496.08;;;12.18;100.00
62928;BME280;51070;52.236;-0.892;2023-11-19T12:32:09;99497.09;;;12.14;100.00
62928;BME280;51070;52.236;-0.892;2023-11-19T12:34:35;99488.76;;;12.12;100.00
62928;BME280;51070;52.236;-0.892;2023-11-19T12:37:03;99486.48;;;12.08;100.00
62928;BME280;51070;52.236;-0.892;2023-11-19T12:39:32;99488.20;;;12.06;100.00
62928;BME280;51070;52.236;-0.892;2023-11-19T12:41:57;99486.80;;;12.04;100.00
62928;BME280;51070;52.236;-0.892;2023-11-19T12:44:24;99482.48;;;12.03;100.00
62928;BME280;51070;52.236;-0.892;2023-11-19T12:47:02;99485.93;;;12.03;100.00
62928;BME280;51070;52.236;-0.892;2023-11-19T12:49:28;99480.38;;;12.04;100.00
62928;BME280;51070;52.236;-0.892;2023-11-19T12:51:53;99476.23;;;12.03;100.00
62928;BME280;51070;52.236;-0.892;2023-11-19T12:54:18;99469.65;;;12.05;100.00
62928;BME280;51070;52.236;-0.892;2023-11-19T12:56:53;99473.64;;;12.05;100.00
62928;BME280;51070;52.236;-0.892;2023-11-19T12:59:19;99484.55;;;12.04;100.00